CEFAS Endeavour — VQHF3 — position and weather

sailwx.info

Track history (hours):
 
Tides and Currents Weather Stations Pressure Air Temp Water Temp Dewpoint Dewpoint Depression Visibility Wind Speed Wind Dir Waves Ship Positions

Oceanographic research ship CEFAS Endeavour (UK)

Detailed information on ship capabilities available from University of Delaware's Ocean Information Center.

Last reported at 2016-Jul-02 08:33 UTC. Time now 2016-Jul-02 09:32 UTC.
Position N 50°18' W 004°14'.

Length 74 m; draft 5.3 m.

Type: Cargo ship. MMSI: 235005270.

Date/timePositionNaut miles runAvg speedWind from/ knotsBaromVisibWave heightAir tempDewpointWater temp
2016-Jul-02 08:33N 50°18' W 004°14'2 1.3
2016-Jul-02 07:19N 50°17' W 004°13'0 0.1
2016-Jul-02 06:32N 50°17' W 004°13'5 2.1
2016-Jul-02 04:24N 50°20' W 004°17'1 0.3
2016-Jul-02 02:23N 50°20' W 004°17'2 1.4
2016-Jul-02 01:16N 50°20' W 004°14'1 0.7
2016-Jul-02 00:29N 50°19' W 004°15'2 0.9
2016-Jul-01 22:24N 50°18' W 004°17'1 1.2
2016-Jul-01 21:34N 50°17' W 004°17'5 2.4
2016-Jul-01 19:32N 50°18' W 004°10'8 8.3
2016-Jul-01 18:34N 50°10' W 004°10'4 3.6
2016-Jul-01 17:31N 50°06' W 004°08'3 2.7
2016-Jul-01 16:34N 50°06' W 004°12'3 2.3
2016-Jul-01 15:26N 50°07' W 004°08'0 0.5
2016-Jul-01 14:31N 50°06' W 004°07'0 0.5
2016-Jul-01 13:33N 50°06' W 004°08'4 3.4
2016-Jul-01 12:26N 50°07' W 004°02'8 7.2
2016-Jul-01 11:23N 50°09' W 003°51'1012.2
2016-Jul-01 10:33N 50°11' W 003°35'1211.7
2016-Jul-01 09:34N 50°13' W 003°17'1211.5
2016-Jul-01 08:34N 50°15' W 002°60'1111.2
2016-Jul-01 07:33N 50°16' W 002°42'1010.2
2016-Jul-01 06:33N 50°18' W 002°26'81 9.7
2016-Jun-30 22:11N 50°31' W 000°20'812.3
2016-Jun-30 21:32N 50°32' W 000°08'1211.9
2016-Jun-30 20:34N 50°35' E 000°10'5611.2
2016-Jun-30 15:34N 51°04' E 001°26'1313.4
2016-Jun-30 14:34N 51°14' E 001°38'1312.8
2016-Jun-30 13:33N 51°27' E 001°43'1212.1
2016-Jun-30 12:34N 51°39' E 001°45'1111.0
2016-Jun-30 11:33N 51°50' E 001°45'9 8.8
2016-Jun-30 10:33N 51°58' E 001°50'10 9.6
2016-Jun-30 09:34N 51°59' E 002°06'3 3.3
2016-Jun-30 08:33N 52°01' E 002°03'1111.2
2016-Jun-30 07:33N 52°12' E 001°57'31 0.7
2016-Jun-28 11:33N 52°42' E 001°47'2 2.2
2016-Jun-28 10:33N 52°44' E 001°45'7 6.7
2016-Jun-28 09:33N 52°50' E 001°39'7 6.8
2016-Jun-28 08:33N 52°56' E 001°33'8 7.8
2016-Jun-28 07:33N 53°03' E 001°31'8 8.2
2016-Jun-28 06:33N 53°12' E 001°31'29 8.5
2016-Jun-28 03:04N 53°34' E 000°60'3411.8
2016-Jun-28 00:12N 54°03' E 000°29'913.4
2016-Jun-27 23:33N 54°08' E 000°18'1413.7
2016-Jun-27 22:33N 54°17' E 000°00'1413.8
2016-Jun-27 21:33N 54°26' W 000°18'1413.8
2016-Jun-27 20:33N 54°35' W 000°37'1313.5
2016-Jun-27 19:33N 54°42' W 000°56'4 4.2
2016-Jun-27 18:33N 54°44' W 001°03'6 6.4
2016-Jun-27 17:33N 54°49' W 001°10'1 1.4
2016-Jun-27 16:33N 54°50' W 001°10'2 1.7
2016-Jun-27 15:33N 54°50' W 001°13'4 3.9
2016-Jun-27 14:33N 54°54' W 001°11'2 2.0
2016-Jun-27 13:33N 54°56' W 001°12'2 2.1
2016-Jun-27 12:33N 54°57' W 001°15'3 3.0
2016-Jun-27 11:33N 55°00' W 001°13'5 5.4
2016-Jun-27 10:33N 54°60' W 001°04'1010.1
2016-Jun-27 09:33N 55°09' W 000°57'1312.7
2016-Jun-27 08:33N 55°22' W 000°55'6 1.0
2016-Jun-27 02:05N 55°27' W 001°03'3 3.5
2016-Jun-27 01:08N 55°25' W 000°58'4 3.6
2016-Jun-27 00:04N 55°27' W 000°52'5 1.0
2016-Jun-26 18:29N 55°23' W 000°47'3 3.3
2016-Jun-26 17:27N 55°21' W 000°52'1 1.0
2016-Jun-26 16:07N 55°22' W 000°54'1 0.8
2016-Jun-26 15:28N 55°22' W 000°55'5 5.0
2016-Jun-26 14:30N 55°19' W 001°01'2 2.6
2016-Jun-26 13:33N 55°18' W 001°05'3 2.5
2016-Jun-26 12:32N 55°20' W 001°07'3 1.3
2016-Jun-26 10:18N 55°22' W 001°11'2 2.7
2016-Jun-26 09:23N 55°23' W 001°14'3 3.2
2016-Jun-26 08:32N 55°21' W 001°17'4 3.7
2016-Jun-26 07:31N 55°19' W 001°12'1 1.5
2016-Jun-26 06:33N 55°17' W 001°12'3 2.7
2016-Jun-26 05:33N 55°15' W 001°09'2 1.7
2016-Jun-26 04:33N 55°14' W 001°07'4 4.0
2016-Jun-26 03:33N 55°16' W 001°01'3 2.7
2016-Jun-26 02:32N 55°16' W 000°56'5 4.7
2016-Jun-26 01:28N 55°17' W 000°47'4 3.7
2016-Jun-26 00:25N 55°16' W 000°41'5 4.5
2016-Jun-25 23:11N 55°13' W 000°48'3 5.1
2016-Jun-25 22:31N 55°12' W 000°54'2 2.0
2016-Jun-25 21:33N 55°11' W 000°57'2 2.4
2016-Jun-25 20:33N 55°13' W 000°58'2 1.5
2016-Jun-25 19:33N 55°13' W 001°01'2 2.3
2016-Jun-25 18:33N 55°11' W 001°03'2 1.9
2016-Jun-25 17:33N 55°10' W 001°04'2 1.7
2016-Jun-25 16:33N 55°10' W 001°07'2 2.0
2016-Jun-25 15:33N 55°12' W 001°09'3 2.7
2016-Jun-25 14:33N 55°13' W 001°13'2 2.1
2016-Jun-25 13:33N 55°11' W 001°15'1 1.4
2016-Jun-25 12:33N 55°12' W 001°17'3 3.1
2016-Jun-25 11:33N 55°09' W 001°18'3 2.6
2016-Jun-25 10:33N 55°07' W 001°15'1 1.3
2016-Jun-25 09:33N 55°07' W 001°12'2 2.3
2016-Jun-25 08:33N 55°08' W 001°09'1 0.8
2016-Jun-25 07:33N 55°08' W 001°08'0 0.1
2016-Jun-25 06:33N 55°08' W 001°08'2 2.3
2016-Jun-25 05:33N 55°08' W 001°04'3 2.7
2016-Jun-25 04:33N 55°07' W 000°60'3 2.7
2016-Jun-25 03:33N 55°08' W 000°56'1 0.8
2016-Jun-25 02:33N 55°08' W 000°55'5 5.5
2016-Jun-25 01:33N 55°07' W 000°46'5 5.3
2016-Jun-25 00:33N 55°02' W 000°49'4 3.6
2016-Jun-24 23:33N 55°04' W 000°55'1 1.3
2016-Jun-24 22:33N 55°05' W 000°55'2 1.7
2016-Jun-24 21:33N 55°05' W 000°58'2 2.5
2016-Jun-24 20:33N 55°04' W 001°02'2 2.1
2016-Jun-24 19:33N 55°05' W 001°04'1 1.1
2016-Jun-24 18:33N 55°05' W 001°05'1 1.3
2016-Jun-24 17:33N 55°04' W 001°07'2 1.5
2016-Jun-24 16:33N 55°05' W 001°10'1 0.6
2016-Jun-24 15:33N 55°05' W 001°11'2 2.3
2016-Jun-24 14:33N 55°04' W 001°14'2 2.4
2016-Jun-24 13:33N 55°02' W 001°15'2 2.4
2016-Jun-24 12:33N 55°00' W 001°11'2 2.1
2016-Jun-24 11:33N 55°02' W 001°09'0 0.2
2016-Jun-24 10:33N 55°02' W 001°09'2 2.3
2016-Jun-24 09:33N 55°01' W 001°06'2 2.1
2016-Jun-24 08:33N 55°03' W 001°02'3 2.6
2016-Jun-24 07:33N 55°01' W 000°58'0 0.4
2016-Jun-24 06:33N 55°01' W 000°58'2 1.0
2016-Jun-24 04:33N 54°59' W 000°56'1 0.6
2016-Jun-24 03:33N 54°59' W 000°57'4 4.0
2016-Jun-24 02:33N 54°56' W 001°01'4 3.7
2016-Jun-24 01:33N 54°59' W 001°01'0 0.1
2016-Jun-24 00:34N 54°59' W 001°01'5 4.7
2016-Jun-23 23:33N 54°59' W 001°09'3 2.6
2016-Jun-23 22:33N 54°58' W 001°13'2 1.5
2016-Jun-23 21:34N 54°58' W 001°15'1 1.4
2016-Jun-23 20:33N 54°59' W 001°13'1 0.9
2016-Jun-23 19:33N 54°59' W 001°11'1 1.3
2016-Jun-23 18:33N 54°58' W 001°10'1 1.4
2016-Jun-23 17:33N 54°58' W 001°07'0 0.4
2016-Jun-23 16:34N 54°59' W 001°08'3 3.1
2016-Jun-23 15:33N 54°57' W 001°04'2 1.8
2016-Jun-23 14:33N 54°56' W 001°01'1 1.5
2016-Jun-23 13:33N 54°56' W 000°59'0 0.2
2016-Jun-23 12:34N 54°56' W 000°59'1 1.0
2016-Jun-23 11:33N 54°56' W 000°57'3 3.2
2016-Jun-23 10:33N 54°53' W 000°57'2 1.6
2016-Jun-23 09:33N 54°55' W 000°56'3 2.6
2016-Jun-23 08:32N 54°55' W 000°51'5 5.4
2016-Jun-23 07:33N 54°53' W 001°00'4 1.9
2016-Jun-23 05:33N 54°53' W 001°07'3 3.1
2016-Jun-23 04:33N 54°55' W 001°12'1 1.5
2016-Jun-23 03:33N 54°55' W 001°14'4 3.8
2016-Jun-23 02:33N 54°52' W 001°10'3 2.9
2016-Jun-23 01:33N 54°51' W 001°05'1 1.5
2016-Jun-23 00:33N 54°50' W 001°03'4 3.6
2016-Jun-22 23:33N 54°51' W 000°57'4 3.7
2016-Jun-22 22:33N 54°48' W 001°00'2 1.9
2016-Jun-22 21:33N 54°46' W 001°02'1 1.0
2016-Jun-22 20:25N 54°45' W 001°03'2 1.9
2016-Jun-22 19:33N 54°46' W 001°06'4 4.1
2016-Jun-22 18:34N 54°49' W 001°01'1 0.6
2016-Jun-22 17:33N 54°48' W 001°00'3 2.9
2016-Jun-22 16:33N 54°48' W 000°55'3 2.9
2016-Jun-22 15:33N 54°49' W 000°51'0 0.4
2016-Jun-22 14:33N 54°50' W 000°51'3 2.9
2016-Jun-22 13:32N 54°47' W 000°49'5 5.1
2016-Jun-22 12:33N 54°46' W 000°58'0 0.1
2016-Jun-22 11:33N 54°46' W 000°58'0 0.0
2016-Jun-22 10:33N 54°46' W 000°58'0 0.0
2016-Jun-22 09:33N 54°46' W 000°58'0 0.4
2016-Jun-22 08:33N 54°46' W 000°58'  
Track history (hours):
 
Tides and Currents Weather Stations Pressure Air Temp Water Temp Dewpoint Dewpoint Depression Visibility Wind Speed Wind Dir Waves Ship Positions

Oceanographic research ship CEFAS Endeavour (UK)

Detailed information on ship capabilities available from University of Delaware's Ocean Information Center.

Last reported at 2016-Jul-02 08:33 UTC. Time now 2016-Jul-02 09:32 UTC.
Position N 50°18' W 004°14'.

Length 74 m; draft 5.3 m.

Type: Cargo ship. MMSI: 235005270.

Date/timePositionNaut miles runAvg speedWind from/ knotsBaromVisibWave heightAir tempDewpointWater temp
2016-Jul-02 08:33N 50°18' W 004°14'2 1.3
2016-Jul-02 07:19N 50°17' W 004°13'0 0.1
2016-Jul-02 06:32N 50°17' W 004°13'5 2.1
2016-Jul-02 04:24N 50°20' W 004°17'1 0.3
2016-Jul-02 02:23N 50°20' W 004°17'2 1.4
2016-Jul-02 01:16N 50°20' W 004°14'1 0.7
2016-Jul-02 00:29N 50°19' W 004°15'2 0.9
2016-Jul-01 22:24N 50°18' W 004°17'1 1.2
2016-Jul-01 21:34N 50°17' W 004°17'5 2.4
2016-Jul-01 19:32N 50°18' W 004°10'8 8.3
2016-Jul-01 18:34N 50°10' W 004°10'4 3.6
2016-Jul-01 17:31N 50°06' W 004°08'3 2.7
2016-Jul-01 16:34N 50°06' W 004°12'3 2.3
2016-Jul-01 15:26N 50°07' W 004°08'0 0.5
2016-Jul-01 14:31N 50°06' W 004°07'0 0.5
2016-Jul-01 13:33N 50°06' W 004°08'4 3.4
2016-Jul-01 12:26N 50°07' W 004°02'8 7.2
2016-Jul-01 11:23N 50°09' W 003°51'1012.2
2016-Jul-01 10:33N 50°11' W 003°35'1211.7
2016-Jul-01 09:34N 50°13' W 003°17'1211.5
2016-Jul-01 08:34N 50°15' W 002°60'1111.2
2016-Jul-01 07:33N 50°16' W 002°42'1010.2
2016-Jul-01 06:33N 50°18' W 002°26'81 9.7
2016-Jun-30 22:11N 50°31' W 000°20'812.3
2016-Jun-30 21:32N 50°32' W 000°08'1211.9
2016-Jun-30 20:34N 50°35' E 000°10'5611.2
2016-Jun-30 15:34N 51°04' E 001°26'1313.4
2016-Jun-30 14:34N 51°14' E 001°38'1312.8
2016-Jun-30 13:33N 51°27' E 001°43'1212.1
2016-Jun-30 12:34N 51°39' E 001°45'1111.0
2016-Jun-30 11:33N 51°50' E 001°45'9 8.8
2016-Jun-30 10:33N 51°58' E 001°50'10 9.6
2016-Jun-30 09:34N 51°59' E 002°06'3 3.3
2016-Jun-30 08:33N 52°01' E 002°03'1111.2
2016-Jun-30 07:33N 52°12' E 001°57'31 0.7
2016-Jun-28 11:33N 52°42' E 001°47'2 2.2
2016-Jun-28 10:33N 52°44' E 001°45'7 6.7
2016-Jun-28 09:33N 52°50' E 001°39'7 6.8
2016-Jun-28 08:33N 52°56' E 001°33'8 7.8
2016-Jun-28 07:33N 53°03' E 001°31'8 8.2
2016-Jun-28 06:33N 53°12' E 001°31'29 8.5
2016-Jun-28 03:04N 53°34' E 000°60'3411.8
2016-Jun-28 00:12N 54°03' E 000°29'913.4
2016-Jun-27 23:33N 54°08' E 000°18'1413.7
2016-Jun-27 22:33N 54°17' E 000°00'1413.8
2016-Jun-27 21:33N 54°26' W 000°18'1413.8
2016-Jun-27 20:33N 54°35' W 000°37'1313.5
2016-Jun-27 19:33N 54°42' W 000°56'4 4.2
2016-Jun-27 18:33N 54°44' W 001°03'6 6.4
2016-Jun-27 17:33N 54°49' W 001°10'1 1.4
2016-Jun-27 16:33N 54°50' W 001°10'2 1.7
2016-Jun-27 15:33N 54°50' W 001°13'4 3.9
2016-Jun-27 14:33N 54°54' W 001°11'2 2.0
2016-Jun-27 13:33N 54°56' W 001°12'2 2.1
2016-Jun-27 12:33N 54°57' W 001°15'3 3.0
2016-Jun-27 11:33N 55°00' W 001°13'5 5.4
2016-Jun-27 10:33N 54°60' W 001°04'1010.1
2016-Jun-27 09:33N 55°09' W 000°57'1312.7
2016-Jun-27 08:33N 55°22' W 000°55'6 1.0
2016-Jun-27 02:05N 55°27' W 001°03'3 3.5
2016-Jun-27 01:08N 55°25' W 000°58'4 3.6
2016-Jun-27 00:04N 55°27' W 000°52'5 1.0
2016-Jun-26 18:29N 55°23' W 000°47'3 3.3
2016-Jun-26 17:27N 55°21' W 000°52'1 1.0
2016-Jun-26 16:07N 55°22' W 000°54'1 0.8
2016-Jun-26 15:28N 55°22' W 000°55'5 5.0
2016-Jun-26 14:30N 55°19' W 001°01'2 2.6
2016-Jun-26 13:33N 55°18' W 001°05'3 2.5
2016-Jun-26 12:32N 55°20' W 001°07'3 1.3
2016-Jun-26 10:18N 55°22' W 001°11'2 2.7
2016-Jun-26 09:23N 55°23' W 001°14'3 3.2
2016-Jun-26 08:32N 55°21' W 001°17'4 3.7
2016-Jun-26 07:31N 55°19' W 001°12'1 1.5
2016-Jun-26 06:33N 55°17' W 001°12'3 2.7
2016-Jun-26 05:33N 55°15' W 001°09'2 1.7
2016-Jun-26 04:33N 55°14' W 001°07'4 4.0
2016-Jun-26 03:33N 55°16' W 001°01'3 2.7
2016-Jun-26 02:32N 55°16' W 000°56'5 4.7
2016-Jun-26 01:28N 55°17' W 000°47'4 3.7
2016-Jun-26 00:25N 55°16' W 000°41'5 4.5
2016-Jun-25 23:11N 55°13' W 000°48'3 5.1
2016-Jun-25 22:31N 55°12' W 000°54'2 2.0
2016-Jun-25 21:33N 55°11' W 000°57'2 2.4
2016-Jun-25 20:33N 55°13' W 000°58'2 1.5
2016-Jun-25 19:33N 55°13' W 001°01'2 2.3
2016-Jun-25 18:33N 55°11' W 001°03'2 1.9
2016-Jun-25 17:33N 55°10' W 001°04'2 1.7
2016-Jun-25 16:33N 55°10' W 001°07'2 2.0
2016-Jun-25 15:33N 55°12' W 001°09'3 2.7
2016-Jun-25 14:33N 55°13' W 001°13'2 2.1
2016-Jun-25 13:33N 55°11' W 001°15'1 1.4
2016-Jun-25 12:33N 55°12' W 001°17'3 3.1
2016-Jun-25 11:33N 55°09' W 001°18'3 2.6
2016-Jun-25 10:33N 55°07' W 001°15'1 1.3
2016-Jun-25 09:33N 55°07' W 001°12'2 2.3
2016-Jun-25 08:33N 55°08' W 001°09'1 0.8
2016-Jun-25 07:33N 55°08' W 001°08'0 0.1
2016-Jun-25 06:33N 55°08' W 001°08'2 2.3
2016-Jun-25 05:33N 55°08' W 001°04'3 2.7
2016-Jun-25 04:33N 55°07' W 000°60'3 2.7
2016-Jun-25 03:33N 55°08' W 000°56'1 0.8
2016-Jun-25 02:33N 55°08' W 000°55'5 5.5
2016-Jun-25 01:33N 55°07' W 000°46'5 5.3
2016-Jun-25 00:33N 55°02' W 000°49'4 3.6
2016-Jun-24 23:33N 55°04' W 000°55'1 1.3
2016-Jun-24 22:33N 55°05' W 000°55'2 1.7
2016-Jun-24 21:33N 55°05' W 000°58'2 2.5
2016-Jun-24 20:33N 55°04' W 001°02'2 2.1
2016-Jun-24 19:33N 55°05' W 001°04'1 1.1
2016-Jun-24 18:33N 55°05' W 001°05'1 1.3
2016-Jun-24 17:33N 55°04' W 001°07'2 1.5
2016-Jun-24 16:33N 55°05' W 001°10'1 0.6
2016-Jun-24 15:33N 55°05' W 001°11'2 2.3
2016-Jun-24 14:33N 55°04' W 001°14'2 2.4
2016-Jun-24 13:33N 55°02' W 001°15'2 2.4
2016-Jun-24 12:33N 55°00' W 001°11'2 2.1
2016-Jun-24 11:33N 55°02' W 001°09'0 0.2
2016-Jun-24 10:33N 55°02' W 001°09'2 2.3
2016-Jun-24 09:33N 55°01' W 001°06'2 2.1
2016-Jun-24 08:33N 55°03' W 001°02'3 2.6
2016-Jun-24 07:33N 55°01' W 000°58'0 0.4
2016-Jun-24 06:33N 55°01' W 000°58'2 1.0
2016-Jun-24 04:33N 54°59' W 000°56'1 0.6
2016-Jun-24 03:33N 54°59' W 000°57'4 4.0
2016-Jun-24 02:33N 54°56' W 001°01'4 3.7
2016-Jun-24 01:33N 54°59' W 001°01'0 0.1
2016-Jun-24 00:34N 54°59' W 001°01'5 4.7
2016-Jun-23 23:33N 54°59' W 001°09'3 2.6
2016-Jun-23 22:33N 54°58' W 001°13'2 1.5
2016-Jun-23 21:34N 54°58' W 001°15'1 1.4
2016-Jun-23 20:33N 54°59' W 001°13'1 0.9
2016-Jun-23 19:33N 54°59' W 001°11'1 1.3
2016-Jun-23 18:33N 54°58' W 001°10'1 1.4
2016-Jun-23 17:33N 54°58' W 001°07'0 0.4
2016-Jun-23 16:34N 54°59' W 001°08'3 3.1
2016-Jun-23 15:33N 54°57' W 001°04'2 1.8
2016-Jun-23 14:33N 54°56' W 001°01'1 1.5
2016-Jun-23 13:33N 54°56' W 000°59'0 0.2
2016-Jun-23 12:34N 54°56' W 000°59'1 1.0
2016-Jun-23 11:33N 54°56' W 000°57'3 3.2
2016-Jun-23 10:33N 54°53' W 000°57'2 1.6
2016-Jun-23 09:33N 54°55' W 000°56'3 2.6
2016-Jun-23 08:32N 54°55' W 000°51'5 5.4
2016-Jun-23 07:33N 54°53' W 001°00'4 1.9
2016-Jun-23 05:33N 54°53' W 001°07'3 3.1
2016-Jun-23 04:33N 54°55' W 001°12'1 1.5
2016-Jun-23 03:33N 54°55' W 001°14'4 3.8
2016-Jun-23 02:33N 54°52' W 001°10'3 2.9
2016-Jun-23 01:33N 54°51' W 001°05'1 1.5
2016-Jun-23 00:33N 54°50' W 001°03'4 3.6
2016-Jun-22 23:33N 54°51' W 000°57'4 3.7
2016-Jun-22 22:33N 54°48' W 001°00'2 1.9
2016-Jun-22 21:33N 54°46' W 001°02'1 1.0
2016-Jun-22 20:25N 54°45' W 001°03'2 1.9
2016-Jun-22 19:33N 54°46' W 001°06'4 4.1
2016-Jun-22 18:34N 54°49' W 001°01'1 0.6
2016-Jun-22 17:33N 54°48' W 001°00'3 2.9
2016-Jun-22 16:33N 54°48' W 000°55'3 2.9
2016-Jun-22 15:33N 54°49' W 000°51'0 0.4
2016-Jun-22 14:33N 54°50' W 000°51'3 2.9
2016-Jun-22 13:32N 54°47' W 000°49'5 5.1
2016-Jun-22 12:33N 54°46' W 000°58'0 0.1
2016-Jun-22 11:33N 54°46' W 000°58'0 0.0
2016-Jun-22 10:33N 54°46' W 000°58'0 0.0
2016-Jun-22 09:33N 54°46' W 000°58'0 0.4
2016-Jun-22 08:33N 54°46' W 000°58'  

Dump ship's entire track history